Purcellville, Virginia
Current Conditions -  °F | °C
As of 11:55 AM on Monday 22 Dec 2014 (Local Time) from KJYO Reporting Station
Unknown Precip Unknown Precip  
Wind Chill: 26°   Ceiling: 6000
Heat Index: 32°   Visibility: 3mi
Dew Point: 32°   Wind: 6mph
Humidity: 100%   Direction: 30°NNE
Pressure: 30.25"   Gusts: NA
Location:  39.14°N, 77.71°W
Report Text: KJYO 221655Z AUTO 03005KT 3SM UP SCT041 SCT050 OVC060 00/00 A3025 RMK AO2 P0001
Loading
Personal Weather Stations






























Interactive Weather Map New forecast layout! Learn more

10-Day Weather Forecast

Advertisements
Track Severe Weather on mobile